sensor_id;sensor_type;location;lat;lon;timestamp;temperature;humidity
17529;DHT22;8882;53.192;8.184;2022-08-16T04:32:55;20.40;99.90
17529;DHT22;8882;53.192;8.184;2022-08-16T04:35:22;20.50;99.90
17529;DHT22;8882;53.192;8.184;2022-08-16T04:37:49;20.40;99.90
17529;DHT22;8882;53.192;8.184;2022-08-16T04:40:16;20.40;99.90
17529;DHT22;8882;53.192;8.184;2022-08-16T04:42:42;20.40;99.90
17529;DHT22;8882;53.192;8.184;2022-08-16T04:45:11;20.50;99.90
17529;DHT22;8882;53.192;8.184;2022-08-16T04:47:38;20.50;99.90
17529;DHT22;8882;53.192;8.184;2022-08-16T04:50:07;20.40;99.90
17529;DHT22;8882;53.192;8.184;2022-08-16T04:52:33;20.40;99.90
17529;DHT22;8882;53.192;8.184;2022-08-16T04:54:59;20.40;99.90
17529;DHT22;8882;53.192;8.184;2022-08-16T04:57:24;20.40;99.90
17529;DHT22;8882;53.192;8.184;2022-08-16T04:59:50;20.50;99.90
17529;DHT22;8882;53.192;8.184;2022-08-16T05:02:15;20.60;99.90
17529;DHT22;8882;53.192;8.184;2022-08-16T05:04:41;20.80;99.90
17529;DHT22;8882;53.192;8.184;2022-08-16T05:07:06;20.90;99.90
17529;DHT22;8882;53.192;8.184;2022-08-16T05:09:32;21.10;99.90
17529;DHT22;8882;53.192;8.184;2022-08-16T05:11:57;21.10;99.90
17529;DHT22;8882;53.192;8.184;2022-08-16T05:14:23;21.10;99.90
17529;DHT22;8882;53.192;8.184;2022-08-16T05:16:48;21.00;99.90
17529;DHT22;8882;53.192;8.184;2022-08-16T05:19:14;21.10;99.90
17529;DHT22;8882;53.192;8.184;2022-08-16T05:21:39;21.10;99.90
17529;DHT22;8882;53.192;8.184;2022-08-16T05:24:05;21.20;99.90
17529;DHT22;8882;53.192;8.184;2022-08-16T05:26:32;21.20;99.90
17529;DHT22;8882;53.192;8.184;2022-08-16T05:28:59;21.30;99.90
17529;DHT22;8882;53.192;8.184;2022-08-16T05:31:26;21.30;99.90
17529;DHT22;8882;53.192;8.184;2022-08-16T05:33:51;21.40;99.90
17529;DHT22;8882;53.192;8.184;2022-08-16T05:36:17;21.40;99.90
17529;DHT22;8882;53.192;8.184;2022-08-16T05:38:44;21.40;99.90
17529;DHT22;8882;53.192;8.184;2022-08-16T05:41:09;21.40;99.90
17529;DHT22;8882;53.192;8.184;2022-08-16T05:43:36;21.40;99.90
17529;DHT22;8882;53.192;8.184;2022-08-16T05:46:01;21.30;99.90
17529;DHT22;8882;53.192;8.184;2022-08-16T05:48:27;21.30;99.90
17529;DHT22;8882;53.192;8.184;2022-08-16T05:50:53;21.30;99.90
17529;DHT22;8882;53.192;8.184;2022-08-16T05:53:18;21.30;99.90
17529;DHT22;8882;53.192;8.184;2022-08-16T05:55:44;21.40;99.90
17529;DHT22;8882;53.192;8.184;2022-08-16T05:58:09;21.40;99.90
17529;DHT22;8882;53.192;8.184;2022-08-16T06:00:35;21.40;99.90
17529;DHT22;8882;53.192;8.184;2022-08-16T06:03:01;21.40;99.90
17529;DHT22;8882;53.192;8.184;2022-08-16T06:05:27;21.50;99.90
17529;DHT22;8882;53.192;8.184;2022-08-16T06:07:52;21.50;99.90
17529;DHT22;8882;53.192;8.184;2022-08-16T06:10:18;21.60;99.90
17529;DHT22;8882;53.192;8.184;2022-08-16T06:12:44;21.60;99.90
17529;DHT22;8882;53.192;8.184;2022-08-16T06:15:13;21.60;99.90
17529;DHT22;8882;53.192;8.184;2022-08-16T06:17:39;21.70;99.90
17529;DHT22;8882;53.192;8.184;2022-08-16T06:20:05;21.70;99.90
17529;DHT22;8882;53.192;8.184;2022-08-16T06:22:31;21.70;99.90
17529;DHT22;8882;53.192;8.184;2022-08-16T06:24:57;21.80;99.90
17529;DHT22;8882;53.192;8.184;2022-08-16T06:27:22;21.90;99.90
17529;DHT22;8882;53.192;8.184;2022-08-16T06:29:48;21.90;99.90
17529;DHT22;8882;53.192;8.184;2022-08-16T06:32:13;22.00;99.90
17529;DHT22;8882;53.192;8.184;2022-08-16T06:34:39;22.00;99.90
17529;DHT22;8882;53.192;8.184;2022-08-16T06:37:04;22.00;99.90
17529;DHT22;8882;53.192;8.184;2022-08-16T06:39:31;22.00;99.90
17529;DHT22;8882;53.192;8.184;2022-08-16T06:41:57;22.00;99.90
17529;DHT22;8882;53.192;8.184;2022-08-16T06:44:22;22.00;99.90
17529;DHT22;8882;53.192;8.184;2022-08-16T06:46:48;22.00;99.90
17529;DHT22;8882;53.192;8.184;2022-08-16T06:49:14;22.00;99.90
17529;DHT22;8882;53.192;8.184;2022-08-16T06:51:40;22.00;99.90
17529;DHT22;8882;53.192;8.184;2022-08-16T06:54:07;22.00;99.90
17529;DHT22;8882;53.192;8.184;2022-08-16T06:56:34;22.10;99.90
17529;DHT22;8882;53.192;8.184;2022-08-16T06:58:59;22.10;99.90
17529;DHT22;8882;53.192;8.184;2022-08-16T07:01:25;22.10;99.90
17529;DHT22;8882;53.192;8.184;2022-08-16T07:03:51;22.10;99.90
17529;DHT22;8882;53.192;8.184;2022-08-16T07:06:17;22.20;99.90
17529;DHT22;8882;53.192;8.184;2022-08-16T07:08:45;22.20;99.90
17529;DHT22;8882;53.192;8.184;2022-08-16T07:11:11;22.20;99.90
17529;DHT22;8882;53.192;8.184;2022-08-16T07:13:37;22.30;99.90
17529;DHT22;8882;53.192;8.184;2022-08-16T07:16:04;22.40;99.90
17529;DHT22;8882;53.192;8.184;2022-08-16T07:18:30;22.50;99.90
17529;DHT22;8882;53.192;8.184;2022-08-16T07:20:56;22.70;99.90
17529;DHT22;8882;53.192;8.184;2022-08-16T07:23:23;22.70;99.90
17529;DHT22;8882;53.192;8.184;2022-08-16T07:25:49;22.80;99.90
17529;DHT22;8882;53.192;8.184;2022-08-16T07:28:17;22.80;99.90
17529;DHT22;8882;53.192;8.184;2022-08-16T07:30:43;22.90;99.90
17529;DHT22;8882;53.192;8.184;2022-08-16T07:33:09;23.00;99.90
17529;DHT22;8882;53.192;8.184;2022-08-16T07:35:36;23.10;99.90
17529;DHT22;8882;53.192;8.184;2022-08-16T07:38:02;23.20;99.90
17529;DHT22;8882;53.192;8.184;2022-08-16T07:40:28;23.10;99.90
17529;DHT22;8882;53.192;8.184;2022-08-16T07:42:53;23.10;99.90
17529;DHT22;8882;53.192;8.184;2022-08-16T07:45:19;23.20;99.90
17529;DHT22;8882;53.192;8.184;2022-08-16T07:47:45;23.20;99.90
17529;DHT22;8882;53.192;8.184;2022-08-16T07:50:12;23.20;99.90
17529;DHT22;8882;53.192;8.184;2022-08-16T07:52:39;23.20;99.90
17529;DHT22;8882;53.192;8.184;2022-08-16T07:55:06;23.20;99.90
17529;DHT22;8882;53.192;8.184;2022-08-16T07:57:32;23.20;99.90
17529;DHT22;8882;53.192;8.184;2022-08-16T07:59:58;23.30;99.90
17529;DHT22;8882;53.192;8.184;2022-08-16T08:02:26;23.20;99.90
17529;DHT22;8882;53.192;8.184;2022-08-16T08:04:51;23.20;99.90
17529;DHT22;8882;53.192;8.184;2022-08-16T08:07:17;23.20;99.90
17529;DHT22;8882;53.192;8.184;2022-08-16T08:09:43;23.20;99.90
17529;DHT22;8882;53.192;8.184;2022-08-16T08:12:08;23.20;99.90
17529;DHT22;8882;53.192;8.184;2022-08-16T08:14:34;23.10;99.90
17529;DHT22;8882;53.192;8.184;2022-08-16T08:16:59;23.20;99.90
17529;DHT22;8882;53.192;8.184;2022-08-16T08:19:25;23.20;99.90
17529;DHT22;8882;53.192;8.184;2022-08-16T08:21:51;23.20;99.90
17529;DHT22;8882;53.192;8.184;2022-08-16T08:24:18;23.20;99.90
17529;DHT22;8882;53.192;8.184;2022-08-16T08:26:44;23.20;99.90
17529;DHT22;8882;53.192;8.184;2022-08-16T08:29:10;23.20;99.90
17529;DHT22;8882;53.192;8.184;2022-08-16T08:31:35;23.20;99.90
17529;DHT22;8882;53.192;8.184;2022-08-16T08:34:03;23.30;99.90
17529;DHT22;8882;53.192;8.184;2022-08-16T08:36:31;23.30;99.90
17529;DHT22;8882;53.192;8.184;2022-08-16T08:38:57;23.30;99.90
17529;DHT22;8882;53.192;8.184;2022-08-16T08:41:23;23.30;99.90
17529;DHT22;8882;53.192;8.184;2022-08-16T08:43:50;23.30;99.90
17529;DHT22;8882;53.192;8.184;2022-08-16T08:46:15;23.30;99.90
17529;DHT22;8882;53.192;8.184;2022-08-16T08:48:41;23.40;99.90
17529;DHT22;8882;53.192;8.184;2022-08-16T08:51:08;23.40;99.90
17529;DHT22;8882;53.192;8.184;2022-08-16T08:53:34;23.50;99.90
17529;DHT22;8882;53.192;8.184;2022-08-16T08:56:02;23.50;99.90
17529;DHT22;8882;53.192;8.184;2022-08-16T08:58:27;23.60;99.90
17529;DHT22;8882;53.192;8.184;2022-08-16T09:00:54;23.70;99.90
17529;DHT22;8882;53.192;8.184;2022-08-16T09:03:21;23.80;99.90
17529;DHT22;8882;53.192;8.184;2022-08-16T09:05:47;23.80;99.90
17529;DHT22;8882;53.192;8.184;2022-08-16T09:08:15;24.00;99.90
17529;DHT22;8882;53.192;8.184;2022-08-16T09:10:41;24.20;99.90
17529;DHT22;8882;53.192;8.184;2022-08-16T09:13:07;24.30;99.90
17529;DHT22;8882;53.192;8.184;2022-08-16T09:15:33;24.30;99.90
17529;DHT22;8882;53.192;8.184;2022-08-16T09:17:59;24.20;99.90
17529;DHT22;8882;53.192;8.184;2022-08-16T09:20:26;24.30;99.90
17529;DHT22;8882;53.192;8.184;2022-08-16T09:22:54;24.50;99.90
17529;DHT22;8882;53.192;8.184;2022-08-16T09:25:20;25.10;99.90
17529;DHT22;8882;53.192;8.184;2022-08-16T09:27:46;25.10;99.90
17529;DHT22;8882;53.192;8.184;2022-08-16T09:30:12;25.20;99.90
17529;DHT22;8882;53.192;8.184;2022-08-16T09:32:37;25.30;99.90
17529;DHT22;8882;53.192;8.184;2022-08-16T09:35:04;25.50;99.90
17529;DHT22;8882;53.192;8.184;2022-08-16T09:37:31;25.50;99.90
17529;DHT22;8882;53.192;8.184;2022-08-16T09:39:58;25.90;99.90
17529;DHT22;8882;53.192;8.184;2022-08-16T09:42:24;26.00;99.90
17529;DHT22;8882;53.192;8.184;2022-08-16T09:44:50;26.40;99.90
17529;DHT22;8882;53.192;8.184;2022-08-16T09:47:16;26.60;99.90
17529;DHT22;8882;53.192;8.184;2022-08-16T09:49:42;27.00;99.90
17529;DHT22;8882;53.192;8.184;2022-08-16T09:52:09;27.30;99.90
17529;DHT22;8882;53.192;8.184;2022-08-16T09:54:34;27.50;99.90
17529;DHT22;8882;53.192;8.184;2022-08-16T09:57:01;27.60;99.90
17529;DHT22;8882;53.192;8.184;2022-08-16T09:59:26;27.90;99.90
17529;DHT22;8882;53.192;8.184;2022-08-16T10:01:53;28.10;99.90
17529;DHT22;8882;53.192;8.184;2022-08-16T10:04:19;28.10;99.90
17529;DHT22;8882;53.192;8.184;2022-08-16T10:06:45;28.00;99.90
17529;DHT22;8882;53.192;8.184;2022-08-16T10:09:13;28.10;99.90
17529;DHT22;8882;53.192;8.184;2022-08-16T10:11:39;28.10;99.90
17529;DHT22;8882;53.192;8.184;2022-08-16T10:14:24;28.20;99.90
17529;DHT22;8882;53.192;8.184;2022-08-16T10:16:59;28.40;99.90
17529;DHT22;8882;53.192;8.184;2022-08-16T10:19:25;28.50;99.90
17529;DHT22;8882;53.192;8.184;2022-08-16T10:21:50;28.70;99.90
17529;DHT22;8882;53.192;8.184;2022-08-16T10:24:16;28.80;99.90
17529;DHT22;8882;53.192;8.184;2022-08-16T10:26:44;28.90;99.90
17529;DHT22;8882;53.192;8.184;2022-08-16T10:29:10;29.00;99.90
17529;DHT22;8882;53.192;8.184;2022-08-16T10:31:36;29.30;99.90
17529;DHT22;8882;53.192;8.184;2022-08-16T10:34:01;29.40;99.90
17529;DHT22;8882;53.192;8.184;2022-08-16T10:36:27;29.60;99.90
17529;DHT22;8882;53.192;8.184;2022-08-16T10:38:53;29.90;99.90
17529;DHT22;8882;53.192;8.184;2022-08-16T10:41:19;29.80;99.90
17529;DHT22;8882;53.192;8.184;2022-08-16T10:43:46;29.80;99.90
17529;DHT22;8882;53.192;8.184;2022-08-16T10:46:12;29.70;99.90
17529;DHT22;8882;53.192;8.184;2022-08-16T10:48:39;30.00;99.90
17529;DHT22;8882;53.192;8.184;2022-08-16T10:51:05;29.80;99.90
17529;DHT22;8882;53.192;8.184;2022-08-16T10:53:31;29.40;99.90
17529;DHT22;8882;53.192;8.184;2022-08-16T10:55:58;29.40;99.90
17529;DHT22;8882;53.192;8.184;2022-08-16T10:58:24;29.40;99.90
17529;DHT22;8882;53.192;8.184;2022-08-16T11:00:50;29.60;99.90
17529;DHT22;8882;53.192;8.184;2022-08-16T11:03:16;29.80;99.90
17529;DHT22;8882;53.192;8.184;2022-08-16T11:05:41;29.80;99.90
17529;DHT22;8882;53.192;8.184;2022-08-16T11:08:09;29.80;99.90
17529;DHT22;8882;53.192;8.184;2022-08-16T11:10:42;30.00;99.90
17529;DHT22;8882;53.192;8.184;2022-08-16T11:13:10;29.90;99.90
17529;DHT22;8882;53.192;8.184;2022-08-16T11:15:36;30.10;99.90
17529;DHT22;8882;53.192;8.184;2022-08-16T11:18:05;30.30;99.90
17529;DHT22;8882;53.192;8.184;2022-08-16T11:20:31;30.50;99.90
17529;DHT22;8882;53.192;8.184;2022-08-16T11:22:57;30.50;99.90
17529;DHT22;8882;53.192;8.184;2022-08-16T11:25:26;30.60;99.90
17529;DHT22;8882;53.192;8.184;2022-08-16T11:27:54;30.70;99.90
17529;DHT22;8882;53.192;8.184;2022-08-16T11:30:19;30.90;99.90
17529;DHT22;8882;53.192;8.184;2022-08-16T11:32:45;31.00;99.90
17529;DHT22;8882;53.192;8.184;2022-08-16T11:35:16;30.80;99.90
17529;DHT22;8882;53.192;8.184;2022-08-16T11:37:55;31.00;99.90
17529;DHT22;8882;53.192;8.184;2022-08-16T11:40:24;31.10;99.90
17529;DHT22;8882;53.192;8.184;2022-08-16T11:42:50;31.30;99.90
17529;DHT22;8882;53.192;8.184;2022-08-16T11:45:16;31.40;99.90
17529;DHT22;8882;53.192;8.184;2022-08-16T11:47:41;31.20;99.90
17529;DHT22;8882;53.192;8.184;2022-08-16T11:50:08;31.30;99.90
17529;DHT22;8882;53.192;8.184;2022-08-16T11:52:35;31.10;99.90
17529;DHT22;8882;53.192;8.184;2022-08-16T11:55:02;31.30;99.90
17529;DHT22;8882;53.192;8.184;2022-08-16T11:57:28;31.50;99.90
17529;DHT22;8882;53.192;8.184;2022-08-16T11:59:54;31.60;99.90
17529;DHT22;8882;53.192;8.184;2022-08-16T12:02:19;31.80;99.90
17529;DHT22;8882;53.192;8.184;2022-08-16T12:04:45;31.50;99.90
17529;DHT22;8882;53.192;8.184;2022-08-16T12:07:11;31.40;99.90
17529;DHT22;8882;53.192;8.184;2022-08-16T12:09:37;31.60;99.90
17529;DHT22;8882;53.192;8.184;2022-08-16T12:12:03;31.60;99.90
17529;DHT22;8882;53.192;8.184;2022-08-16T12:14:30;31.50;99.90
17529;DHT22;8882;53.192;8.184;2022-08-16T12:16:57;31.50;99.90
17529;DHT22;8882;53.192;8.184;2022-08-16T12:19:24;31.30;99.90
17529;DHT22;8882;53.192;8.184;2022-08-16T12:21:50;31.40;99.90
17529;DHT22;8882;53.192;8.184;2022-08-16T12:24:15;31.30;99.90
17529;DHT22;8882;53.192;8.184;2022-08-16T12:26:41;31.50;99.90
17529;DHT22;8882;53.192;8.184;2022-08-16T12:29:06;31.70;99.90
17529;DHT22;8882;53.192;8.184;2022-08-16T12:31:32;31.80;99.90
17529;DHT22;8882;53.192;8.184;2022-08-16T12:33:58;31.80;99.90
17529;DHT22;8882;53.192;8.184;2022-08-16T12:36:24;31.90;99.90
17529;DHT22;8882;53.192;8.184;2022-08-16T12:38:50;32.10;99.90
17529;DHT22;8882;53.192;8.184;2022-08-16T12:41:16;32.20;99.90
17529;DHT22;8882;53.192;8.184;2022-08-16T12:43:41;32.10;99.90
17529;DHT22;8882;53.192;8.184;2022-08-16T12:46:09;32.10;99.90
17529;DHT22;8882;53.192;8.184;2022-08-16T12:48:35;31.70;99.90
17529;DHT22;8882;53.192;8.184;2022-08-16T12:51:21;31.70;99.90
17529;DHT22;8882;53.192;8.184;2022-08-16T12:53:49;31.70;99.90
17529;DHT22;8882;53.192;8.184;2022-08-16T12:56:17;31.80;99.90
17529;DHT22;8882;53.192;8.184;2022-08-16T12:58:44;31.80;99.90
17529;DHT22;8882;53.192;8.184;2022-08-16T13:01:11;32.00;99.90
17529;DHT22;8882;53.192;8.184;2022-08-16T13:03:37;32.10;99.90
17529;DHT22;8882;53.192;8.184;2022-08-16T13:06:03;32.10;99.90
17529;DHT22;8882;53.192;8.184;2022-08-16T13:08:29;31.90;99.90
17529;DHT22;8882;53.192;8.184;2022-08-16T13:10:54;31.60;99.90
17529;DHT22;8882;53.192;8.184;2022-08-16T13:13:22;31.60;99.90
17529;DHT22;8882;53.192;8.184;2022-08-16T13:15:57;31.70;99.90
17529;DHT22;8882;53.192;8.184;2022-08-16T13:18:24;31.70;99.90
17529;DHT22;8882;53.192;8.184;2022-08-16T13:20:50;31.90;99.90
17529;DHT22;8882;53.192;8.184;2022-08-16T13:23:16;31.90;99.90
17529;DHT22;8882;53.192;8.184;2022-08-16T13:25:45;31.90;99.90
17529;DHT22;8882;53.192;8.184;2022-08-16T13:28:12;31.90;99.90
17529;DHT22;8882;53.192;8.184;2022-08-16T13:30:41;32.00;99.90
17529;DHT22;8882;53.192;8.184;2022-08-16T13:33:08;31.90;99.90
17529;DHT22;8882;53.192;8.184;2022-08-16T13:35:34;31.70;99.90
17529;DHT22;8882;53.192;8.184;2022-08-16T13:38:00;31.70;99.90
17529;DHT22;8882;53.192;8.184;2022-08-16T13:40:26;31.60;99.90
17529;DHT22;8882;53.192;8.184;2022-08-16T13:42:52;31.70;99.90
17529;DHT22;8882;53.192;8.184;2022-08-16T13:45:18;31.70;99.90
17529;DHT22;8882;53.192;8.184;2022-08-16T13:47:44;31.70;99.90
17529;DHT22;8882;53.192;8.184;2022-08-16T13:50:10;31.80;99.90
17529;DHT22;8882;53.192;8.184;2022-08-16T13:52:36;31.80;99.90
17529;DHT22;8882;53.192;8.184;2022-08-16T13:55:03;31.80;99.90
17529;DHT22;8882;53.192;8.184;2022-08-16T13:57:28;31.90;99.90
17529;DHT22;8882;53.192;8.184;2022-08-16T13:59:54;31.90;99.90
17529;DHT22;8882;53.192;8.184;2022-08-16T14:02:19;31.70;99.90
17529;DHT22;8882;53.192;8.184;2022-08-16T14:04:45;31.70;99.90
17529;DHT22;8882;53.192;8.184;2022-08-16T14:07:14;31.50;99.90
17529;DHT22;8882;53.192;8.184;2022-08-16T14:09:40;31.50;99.90
17529;DHT22;8882;53.192;8.184;2022-08-16T14:12:20;31.40;99.90
17529;DHT22;8882;53.192;8.184;2022-08-16T14:14:47;31.20;99.90
17529;DHT22;8882;53.192;8.184;2022-08-16T14:17:16;31.10;99.90
17529;DHT22;8882;53.192;8.184;2022-08-16T14:19:41;31.20;99.90
17529;DHT22;8882;53.192;8.184;2022-08-16T14:22:08;31.20;99.90
17529;DHT22;8882;53.192;8.184;2022-08-16T14:24:34;31.10;99.90
17529;DHT22;8882;53.192;8.184;2022-08-16T14:27:01;31.00;99.90
17529;DHT22;8882;53.192;8.184;2022-08-16T14:29:27;30.90;99.90
17529;DHT22;8882;53.192;8.184;2022-08-16T14:31:57;30.90;99.90
17529;DHT22;8882;53.192;8.184;2022-08-16T14:34:23;30.80;99.90
17529;DHT22;8882;53.192;8.184;2022-08-16T14:36:48;30.70;99.90
17529;DHT22;8882;53.192;8.184;2022-08-16T14:39:14;30.70;99.90
17529;DHT22;8882;53.192;8.184;2022-08-16T14:41:39;30.70;99.90
17529;DHT22;8882;53.192;8.184;2022-08-16T14:44:05;30.80;99.90
17529;DHT22;8882;53.192;8.184;2022-08-16T14:46:31;30.80;99.90
17529;DHT22;8882;53.192;8.184;2022-08-16T14:48:56;30.90;99.90
17529;DHT22;8882;53.192;8.184;2022-08-16T14:51:22;30.90;99.90
17529;DHT22;8882;53.192;8.184;2022-08-16T14:53:47;30.90;99.90
17529;DHT22;8882;53.192;8.184;2022-08-16T14:56:13;30.80;99.90
17529;DHT22;8882;53.192;8.184;2022-08-16T14:58:38;30.80;99.90
17529;DHT22;8882;53.192;8.184;2022-08-16T15:01:05;30.80;99.90
17529;DHT22;8882;53.192;8.184;2022-08-16T15:03:31;30.70;99.90
17529;DHT22;8882;53.192;8.184;2022-08-16T15:05:56;30.70;99.90
17529;DHT22;8882;53.192;8.184;2022-08-16T15:08:22;30.70;99.90
17529;DHT22;8882;53.192;8.184;2022-08-16T15:10:47;30.50;99.90
17529;DHT22;8882;53.192;8.184;2022-08-16T15:13:14;30.40;99.90
17529;DHT22;8882;53.192;8.184;2022-08-16T15:15:40;30.20;99.90
17529;DHT22;8882;53.192;8.184;2022-08-16T15:18:07;30.10;99.90
17529;DHT22;8882;53.192;8.184;2022-08-16T15:20:35;30.10;99.90
17529;DHT22;8882;53.192;8.184;2022-08-16T15:23:04;30.10;99.90
17529;DHT22;8882;53.192;8.184;2022-08-16T15:25:33;30.00;99.90
17529;DHT22;8882;53.192;8.184;2022-08-16T15:28:00;30.00;99.90
17529;DHT22;8882;53.192;8.184;2022-08-16T15:30:27;30.00;99.90
17529;DHT22;8882;53.192;8.184;2022-08-16T15:33:01;29.90;99.90
17529;DHT22;8882;53.192;8.184;2022-08-16T15:35:28;29.90;99.90
17529;DHT22;8882;53.192;8.184;2022-08-16T15:37:54;29.90;99.90
17529;DHT22;8882;53.192;8.184;2022-08-16T15:40:19;29.90;99.90
17529;DHT22;8882;53.192;8.184;2022-08-16T15:42:51;29.80;99.90
17529;DHT22;8882;53.192;8.184;2022-08-16T15:47:49;29.70;99.90
17529;DHT22;8882;53.192;8.184;2022-08-16T15:50:14;29.70;99.90
17529;DHT22;8882;53.192;8.184;2022-08-16T15:52:40;29.60;99.90
17529;DHT22;8882;53.192;8.184;2022-08-16T15:55:08;29.60;99.90
17529;DHT22;8882;53.192;8.184;2022-08-16T15:57:35;29.50;99.90
17529;DHT22;8882;53.192;8.184;2022-08-16T16:00:02;29.50;99.90
17529;DHT22;8882;53.192;8.184;2022-08-16T16:02:31;29.50;99.90
17529;DHT22;8882;53.192;8.184;2022-08-16T16:05:00;29.50;99.90
17529;DHT22;8882;53.192;8.184;2022-08-16T16:07:25;29.40;99.90
17529;DHT22;8882;53.192;8.184;2022-08-16T16:09:51;29.40;99.90
17529;DHT22;8882;53.192;8.184;2022-08-16T16:12:16;29.40;99.90
17529;DHT22;8882;53.192;8.184;2022-08-16T16:14:42;29.30;99.90
17529;DHT22;8882;53.192;8.184;2022-08-16T16:17:08;29.30;99.90
17529;DHT22;8882;53.192;8.184;2022-08-16T16:19:33;29.20;99.90
17529;DHT22;8882;53.192;8.184;2022-08-16T16:21:59;29.10;99.90
17529;DHT22;8882;53.192;8.184;2022-08-16T16:24:25;29.10;99.90
17529;DHT22;8882;53.192;8.184;2022-08-16T16:26:51;29.00;99.90
17529;DHT22;8882;53.192;8.184;2022-08-16T16:29:16;29.00;99.90
17529;DHT22;8882;53.192;8.184;2022-08-16T16:31:42;29.00;99.90
17529;DHT22;8882;53.192;8.184;2022-08-16T16:34:08;29.00;99.90
17529;DHT22;8882;53.192;8.184;2022-08-16T16:36:34;28.90;99.90
17529;DHT22;8882;53.192;8.184;2022-08-16T16:39:02;29.00;99.90
17529;DHT22;8882;53.192;8.184;2022-08-16T16:41:30;28.90;99.90
17529;DHT22;8882;53.192;8.184;2022-08-16T16:43:57;28.80;99.90
17529;DHT22;8882;53.192;8.184;2022-08-16T16:46:25;28.70;99.90
17529;DHT22;8882;53.192;8.184;2022-08-16T16:48:51;28.60;99.90
17529;DHT22;8882;53.192;8.184;2022-08-16T16:51:19;28.60;99.90
17529;DHT22;8882;53.192;8.184;2022-08-16T16:53:46;28.60;99.90
17529;DHT22;8882;53.192;8.184;2022-08-16T16:56:15;28.60;99.90
17529;DHT22;8882;53.192;8.184;2022-08-16T16:58:40;28.50;99.90
17529;DHT22;8882;53.192;8.184;2022-08-16T17:01:23;28.50;99.90
17529;DHT22;8882;53.192;8.184;2022-08-16T17:03:49;28.50;99.90
17529;DHT22;8882;53.192;8.184;2022-08-16T17:06:15;28.50;99.90
17529;DHT22;8882;53.192;8.184;2022-08-16T17:08:41;28.50;99.90
17529;DHT22;8882;53.192;8.184;2022-08-16T17:11:10;28.40;99.90
17529;DHT22;8882;53.192;8.184;2022-08-16T17:13:36;28.40;99.90
17529;DHT22;8882;53.192;8.184;2022-08-16T17:16:03;28.40;99.90
17529;DHT22;8882;53.192;8.184;2022-08-16T17:18:29;28.40;99.90
17529;DHT22;8882;53.192;8.184;2022-08-16T17:20:55;28.30;99.90
17529;DHT22;8882;53.192;8.184;2022-08-16T17:23:20;28.20;99.90
17529;DHT22;8882;53.192;8.184;2022-08-16T17:25:47;28.20;99.90
17529;DHT22;8882;53.192;8.184;2022-08-16T17:28:13;28.20;99.90
17529;DHT22;8882;53.192;8.184;2022-08-16T17:30:38;28.10;99.90
17529;DHT22;8882;53.192;8.184;2022-08-16T17:33:05;28.00;99.90
17529;DHT22;8882;53.192;8.184;2022-08-16T17:35:37;28.00;99.90
17529;DHT22;8882;53.192;8.184;2022-08-16T17:38:06;27.90;99.90
17529;DHT22;8882;53.192;8.184;2022-08-16T17:40:35;27.90;99.90
17529;DHT22;8882;53.192;8.184;2022-08-16T17:43:01;27.90;99.90
17529;DHT22;8882;53.192;8.184;2022-08-16T17:45:28;27.90;99.90
17529;DHT22;8882;53.192;8.184;2022-08-16T17:47:53;27.80;99.90
17529;DHT22;8882;53.192;8.184;2022-08-16T17:50:19;27.70;99.90
17529;DHT22;8882;53.192;8.184;2022-08-16T17:52:50;27.50;99.90
17529;DHT22;8882;53.192;8.184;2022-08-16T17:55:20;27.40;99.90
17529;DHT22;8882;53.192;8.184;2022-08-16T17:57:46;27.20;99.90
17529;DHT22;8882;53.192;8.184;2022-08-16T18:00:12;27.10;99.90
17529;DHT22;8882;53.192;8.184;2022-08-16T18:02:40;27.00;99.90
17529;DHT22;8882;53.192;8.184;2022-08-16T18:05:07;26.90;99.90
17529;DHT22;8882;53.192;8.184;2022-08-16T18:07:32;26.80;99.90
17529;DHT22;8882;53.192;8.184;2022-08-16T18:09:59;26.80;99.90
17529;DHT22;8882;53.192;8.184;2022-08-16T18:12:25;26.70;99.90
17529;DHT22;8882;53.192;8.184;2022-08-16T18:14:54;26.70;99.90
17529;DHT22;8882;53.192;8.184;2022-08-16T18:17:20;26.60;99.90
17529;DHT22;8882;53.192;8.184;2022-08-16T18:19:45;26.50;99.90
17529;DHT22;8882;53.192;8.184;2022-08-16T18:22:11;26.50;99.90
17529;DHT22;8882;53.192;8.184;2022-08-16T18:24:43;26.40;99.90
17529;DHT22;8882;53.192;8.184;2022-08-16T18:27:09;26.30;99.90
17529;DHT22;8882;53.192;8.184;2022-08-16T18:29:34;26.20;99.90
17529;DHT22;8882;53.192;8.184;2022-08-16T18:32:03;26.10;99.90
17529;DHT22;8882;53.192;8.184;2022-08-16T18:34:29;26.10;99.90
17529;DHT22;8882;53.192;8.184;2022-08-16T18:36:55;26.00;99.90
17529;DHT22;8882;53.192;8.184;2022-08-16T18:39:20;25.90;99.90
17529;DHT22;8882;53.192;8.184;2022-08-16T18:41:46;25.90;99.90
17529;DHT22;8882;53.192;8.184;2022-08-16T18:44:12;25.80;99.90
17529;DHT22;8882;53.192;8.184;2022-08-16T18:46:40;25.70;99.90
17529;DHT22;8882;53.192;8.184;2022-08-16T18:49:06;25.60;99.90
17529;DHT22;8882;53.192;8.184;2022-08-16T18:51:32;25.50;99.90
17529;DHT22;8882;53.192;8.184;2022-08-16T18:53:58;25.50;99.90
17529;DHT22;8882;53.192;8.184;2022-08-16T18:56:23;25.50;99.90
17529;DHT22;8882;53.192;8.184;2022-08-16T18:58:49;25.50;99.90
17529;DHT22;8882;53.192;8.184;2022-08-16T19:01:14;25.50;99.90
17529;DHT22;8882;53.192;8.184;2022-08-16T19:03:40;25.50;99.90
17529;DHT22;8882;53.192;8.184;2022-08-16T19:06:09;25.40;99.90
17529;DHT22;8882;53.192;8.184;2022-08-16T19:08:36;25.40;99.90
17529;DHT22;8882;53.192;8.184;2022-08-16T19:11:04;25.30;99.90
17529;DHT22;8882;53.192;8.184;2022-08-16T19:13:30;25.30;99.90
17529;DHT22;8882;53.192;8.184;2022-08-16T19:15:58;25.30;99.90
17529;DHT22;8882;53.192;8.184;2022-08-16T19:18:27;25.20;99.90
17529;DHT22;8882;53.192;8.184;2022-08-16T19:20:54;25.10;99.90
17529;DHT22;8882;53.192;8.184;2022-08-16T19:23:25;25.10;99.90
17529;DHT22;8882;53.192;8.184;2022-08-16T19:25:54;25.00;99.90
17529;DHT22;8882;53.192;8.184;2022-08-16T19:28:23;25.00;99.90
17529;DHT22;8882;53.192;8.184;2022-08-16T19:30:48;24.90;99.90
17529;DHT22;8882;53.192;8.184;2022-08-16T19:33:14;24.90;99.90
17529;DHT22;8882;53.192;8.184;2022-08-16T19:35:39;24.80;99.90
17529;DHT22;8882;53.192;8.184;2022-08-16T19:38:05;24.70;99.90
17529;DHT22;8882;53.192;8.184;2022-08-16T19:40:31;24.60;99.90
17529;DHT22;8882;53.192;8.184;2022-08-16T19:42:57;24.50;99.90
17529;DHT22;8882;53.192;8.184;2022-08-16T19:45:23;24.50;99.90
17529;DHT22;8882;53.192;8.184;2022-08-16T19:47:50;24.50;99.90
17529;DHT22;8882;53.192;8.184;2022-08-16T19:50:16;24.50;99.90
17529;DHT22;8882;53.192;8.184;2022-08-16T19:52:44;24.40;99.90
17529;DHT22;8882;53.192;8.184;2022-08-16T19:55:11;24.50;99.90
17529;DHT22;8882;53.192;8.184;2022-08-16T19:57:37;24.40;99.90
17529;DHT22;8882;53.192;8.184;2022-08-16T20:00:09;24.30;99.90
17529;DHT22;8882;53.192;8.184;2022-08-16T20:02:42;24.30;99.90
17529;DHT22;8882;53.192;8.184;2022-08-16T20:05:15;24.20;99.90
17529;DHT22;8882;53.192;8.184;2022-08-16T20:07:41;24.20;99.90
17529;DHT22;8882;53.192;8.184;2022-08-16T20:10:07;24.10;99.90
17529;DHT22;8882;53.192;8.184;2022-08-16T20:12:33;24.10;99.90
17529;DHT22;8882;53.192;8.184;2022-08-16T20:14:59;24.10;99.90